Terminal Aerodrome Forecast
Issued by NWS Denver/Boulder, CO

Home | Current Version | Previous Version | Text Only | Print | Product List | Glossary On
Versions: 1 2 3 4 5 6 7 8 9 10 11 12 13 14 15 16 17 18 19 20 21 22 23 24 25 26 27 28 29 30 31 32 33 34 35 36 37 38 39 40 41 42 43 44 45
000
FTUS45 KBOU 242014 AAB
TAFDEN
TAF AMD
KDEN 242014Z 2420/2524 VRB04KT P6SM VCSH SCT020 BKN030 BKN060
      TEMPO 2420/2422 6SM -SHSN BR BKN020
     FM242200 08006KT P6SM VCSH SCT020 BKN035 OVC050
      TEMPO 2422/2501 3SM -SHSN BKN015
     FM250200 15007KT P6SM SCT025 BKN060
     FM250600 22009KT P6SM FEW070
     FM251800 VRB05KT P6SM SCT090 SCT150=

USA.gov is the U.S. government's official web portal to all federal, state and local government web resources and services.